createdAt,value
2023-05-04T01:18:26.640Z,9.20
2023-05-04T01:50:58.377Z,8.40
2023-05-04T03:37:18.232Z,8.50
2023-05-04T04:04:08.453Z,11.40
2023-05-04T04:10:32.312Z,6.70
2023-05-04T04:11:36.580Z,10.20
2023-05-04T04:22:20.058Z,10.40
2023-05-04T04:37:22.523Z,10.60
2023-05-04T04:38:28.714Z,10.70
2023-05-04T04:40:36.868Z,14.30
2023-05-04T04:41:42.281Z,11.00
2023-05-04T04:42:48.290Z,11.20
2023-05-04T04:43:51.060Z,13.50
2023-05-04T04:44:55.104Z,11.50
2023-05-04T04:45:58.962Z,11.70
2023-05-04T04:47:03.054Z,11.70
2023-05-04T04:48:07.127Z,11.80
2023-05-04T04:49:11.075Z,11.80
2023-05-04T04:50:14.679Z,11.80
2023-05-04T04:51:18.944Z,11.80
2023-05-04T04:52:23.487Z,11.80
2023-05-04T04:53:27.385Z,11.70
2023-05-04T04:54:32.042Z,11.70
2023-05-04T04:55:36.384Z,11.70
2023-05-04T04:56:40.751Z,8.90
2023-05-04T04:57:45.079Z,11.80
2023-05-04T04:58:51.184Z,11.80
2023-05-04T04:59:55.158Z,12.00
2023-05-04T05:00:58.684Z,12.20
2023-05-04T05:02:03.229Z,12.30
2023-05-04T05:04:11.230Z,12.70
2023-05-04T05:05:14.223Z,13.00
2023-05-04T05:14:52.215Z,15.10
2023-05-04T05:19:06.390Z,15.80
2023-05-04T05:20:11.551Z,15.90
2023-05-04T05:21:16.098Z,16.30
2023-05-04T05:22:19.020Z,16.50
2023-05-04T05:23:23.137Z,16.70
2023-05-04T05:24:26.588Z,16.80
2023-05-04T05:25:29.917Z,16.90
2023-05-04T05:26:33.988Z,17.10
2023-05-04T05:27:40.035Z,17.30
2023-05-04T05:28:42.988Z,17.60
2023-05-04T05:30:52.354Z,17.80
2023-05-04T05:31:55.226Z,17.80
2023-05-04T05:32:59.085Z,18.00
2023-05-04T05:34:02.202Z,18.00
2023-05-04T05:35:07.213Z,18.30
2023-05-04T05:37:14.410Z,18.30
2023-05-04T05:38:21.499Z,18.00
2023-05-04T05:39:25.807Z,18.40
2023-05-04T05:40:28.658Z,18.50
2023-05-04T05:41:32.656Z,18.60
2023-05-04T05:42:35.161Z,18.70
2023-05-04T05:43:39.148Z,18.70
2023-05-04T05:44:42.212Z,18.70
2023-05-04T05:45:46.226Z,18.80
2023-05-04T05:46:50.903Z,18.80
2023-05-04T05:48:57.688Z,19.00
2023-05-04T05:50:01.300Z,14.60
2023-05-04T05:51:05.671Z,18.90
2023-05-04T05:52:10.067Z,19.00
2023-05-04T05:53:12.981Z,19.10
2023-05-04T05:54:16.677Z,19.10
2023-05-04T05:55:20.354Z,19.00
2023-05-04T05:57:27.169Z,19.10
2023-05-04T05:58:30.759Z,19.10
2023-05-04T06:00:40.574Z,19.20
2023-05-04T06:01:43.263Z,19.10
2023-05-04T06:03:52.337Z,19.10
2023-05-04T06:06:00.493Z,19.20
2023-05-04T06:08:07.102Z,19.10
2023-05-04T06:09:09.757Z,19.10
2023-05-04T06:10:13.868Z,18.90
2023-05-04T06:11:19.768Z,18.90
2023-05-04T06:13:28.527Z,18.80
2023-05-04T06:15:36.663Z,18.80
2023-05-04T06:16:39.291Z,18.80
2023-05-04T06:17:43.414Z,18.80
2023-05-04T06:18:47.627Z,18.80
2023-05-04T06:19:51.735Z,18.70
2023-05-04T06:21:00.427Z,18.50
2023-05-04T06:22:03.156Z,18.40
2023-05-04T06:23:07.612Z,18.40
2023-05-04T06:24:11.575Z,18.50
2023-05-04T06:25:14.198Z,18.50
2023-05-04T06:27:25.049Z,18.50
2023-05-04T06:28:28.488Z,18.50
2023-05-04T06:29:32.791Z,18.40
2023-05-04T06:30:36.664Z,18.60
2023-05-04T06:31:40.468Z,22.00
2023-05-04T06:32:47.120Z,18.80
2023-05-04T06:33:52.544Z,17.40
2023-05-04T06:34:56.152Z,18.90
2023-05-04T06:38:09.598Z,19.10
2023-05-04T06:39:12.548Z,19.00
2023-05-04T06:40:16.663Z,19.00
2023-05-04T06:41:19.129Z,18.90
2023-05-04T06:42:22.935Z,19.60
2023-05-04T06:43:27.253Z,19.00
2023-05-04T06:44:31.159Z,19.10
2023-05-04T06:45:35.318Z,19.00
2023-05-04T06:47:43.168Z,19.10
2023-05-04T06:48:47.041Z,19.10
2023-05-04T06:49:52.052Z,19.10
2023-05-04T06:50:55.166Z,19.10
2023-05-04T06:51:59.216Z,19.10
2023-05-04T06:53:08.241Z,19.10
2023-05-04T06:54:11.571Z,19.00
2023-05-04T06:55:15.570Z,19.00
2023-05-04T06:56:18.538Z,18.90
2023-05-04T06:57:22.162Z,15.40
2023-05-04T06:58:28.109Z,19.00
2023-05-04T06:59:32.233Z,19.00
2023-05-04T07:00:35.318Z,18.90
2023-05-04T07:01:39.572Z,17.50
2023-05-04T07:02:43.246Z,15.90
2023-05-04T07:03:45.836Z,19.20
2023-05-04T07:04:52.793Z,19.30
2023-05-04T07:05:56.503Z,17.50
2023-05-04T07:07:00.672Z,19.40
2023-05-04T07:08:04.327Z,22.50
2023-05-04T07:09:07.219Z,19.50
2023-05-04T07:10:11.681Z,17.10
2023-05-04T07:11:14.209Z,19.60
2023-05-04T07:12:18.520Z,19.70
2023-05-04T07:14:25.765Z,19.80
2023-05-04T07:15:29.712Z,19.90
2023-05-04T07:16:33.194Z,19.80
2023-05-04T07:17:38.246Z,19.90
2023-05-04T07:18:40.849Z,20.00
2023-05-04T07:19:44.298Z,20.00
2023-05-04T07:20:49.362Z,18.00
2023-05-04T07:21:52.214Z,19.90
2023-05-04T07:22:57.298Z,19.90
2023-05-04T07:24:01.537Z,21.40
2023-05-04T07:25:05.959Z,20.20
2023-05-04T07:26:10.064Z,20.20
2023-05-04T07:27:13.314Z,20.20
2023-05-04T07:28:17.291Z,20.40
2023-05-04T07:29:20.401Z,20.50
2023-05-04T15:17:59.922Z,21.30
2023-05-04T17:17:50.507Z,18.10
2023-05-04T19:17:40.787Z,15.30
